createdAt,value
2022-12-09T00:01:13.277Z,41.47
2022-12-09T00:03:41.928Z,40.38
2022-12-09T00:06:13.986Z,40.05
2022-12-09T00:08:41.660Z,39.70
2022-12-09T00:11:09.305Z,39.28
2022-12-09T00:13:37.452Z,36.30
2022-12-09T00:16:11.056Z,35.88
2022-12-09T00:18:39.636Z,36.42
2022-12-09T00:21:26.260Z,35.15
2022-12-09T00:23:55.773Z,35.33
2022-12-09T00:26:24.537Z,34.45
2022-12-09T00:28:52.979Z,36.50
2022-12-09T00:31:26.473Z,35.67
2022-12-09T00:33:57.938Z,36.03
2022-12-09T00:36:26.239Z,35.47
2022-12-09T00:38:55.511Z,37.42
2022-12-09T00:41:23.140Z,37.47
2022-12-09T00:43:52.142Z,34.72
2022-12-09T00:46:19.769Z,36.67
2022-12-09T00:48:47.623Z,36.78
2022-12-09T00:51:18.126Z,35.42
2022-12-09T00:53:47.473Z,35.50
2022-12-09T00:56:15.255Z,34.15
2022-12-09T00:58:43.024Z,35.13
2022-12-09T01:01:10.676Z,35.50
2022-12-09T01:03:39.364Z,34.90
2022-12-09T01:08:39.639Z,35.05
2022-12-09T01:11:16.429Z,34.85
2022-12-09T01:13:43.974Z,36.40
2022-12-09T01:16:21.083Z,35.05
2022-12-09T01:18:49.895Z,35.70
2022-12-09T01:21:17.831Z,35.63
2022-12-09T01:23:45.360Z,36.67
2022-12-09T01:26:13.363Z,36.03
2022-12-09T01:28:41.179Z,34.60
2022-12-09T01:31:18.702Z,35.70
2022-12-09T01:33:46.956Z,34.47
2022-12-09T01:36:17.548Z,32.80
2022-12-09T01:38:46.620Z,35.20
2022-12-09T01:41:15.022Z,32.95
2022-12-09T01:43:43.510Z,34.47
2022-12-09T01:46:11.413Z,35.45
2022-12-09T01:48:43.566Z,35.35
2022-12-09T01:51:18.530Z,35.75
2022-12-09T01:53:50.228Z,35.22
2022-12-09T01:56:32.343Z,34.63
2022-12-09T01:59:09.043Z,35.17
2022-12-09T02:01:37.580Z,37.38
2022-12-09T02:04:06.059Z,36.67
2022-12-09T02:06:37.046Z,36.28
2022-12-09T02:11:41.903Z,34.30
2022-12-09T02:14:21.761Z,35.53
2022-12-09T02:17:10.712Z,35.50
2022-12-09T02:20:01.828Z,34.30
2022-12-09T02:22:37.365Z,34.50
2022-12-09T02:25:35.955Z,34.90
2022-12-09T02:28:18.690Z,33.15
2022-12-09T02:31:03.012Z,35.85
2022-12-09T02:33:53.282Z,34.60
2022-12-09T02:36:27.851Z,33.38
2022-12-09T02:38:59.057Z,34.80
2022-12-09T02:41:29.251Z,33.33
2022-12-09T02:44:07.437Z,34.53
2022-12-09T02:46:36.429Z,34.10
2022-12-09T02:49:08.047Z,33.10
2022-12-09T02:51:38.002Z,30.70
2022-12-09T02:54:11.357Z,33.63
2022-12-09T02:56:43.599Z,33.28
2022-12-09T02:59:11.377Z,34.08
2022-12-09T03:02:04.709Z,33.38
2022-12-09T03:04:32.937Z,32.80
2022-12-09T03:07:31.585Z,33.72
2022-12-09T03:10:10.618Z,32.25
2022-12-09T03:12:40.776Z,32.97
2022-12-09T03:15:12.481Z,32.58
2022-12-09T03:17:44.020Z,32.90
2022-12-09T03:20:16.696Z,33.10
2022-12-09T03:22:46.398Z,33.05
2022-12-09T03:25:46.293Z,31.67
2022-12-09T03:28:34.561Z,33.75
2022-12-09T03:31:06.941Z,33.20
2022-12-09T03:33:34.585Z,35.30
2022-12-09T03:36:06.930Z,33.92
2022-12-09T03:38:38.486Z,33.97
2022-12-09T03:42:01.934Z,34.60
2022-12-09T03:44:37.191Z,32.53
2022-12-09T03:47:06.894Z,34.33
2022-12-09T03:49:34.947Z,34.80
2022-12-09T03:52:22.749Z,34.33
2022-12-09T03:54:57.678Z,32.30
2022-12-09T03:57:26.038Z,31.08
2022-12-09T03:59:58.687Z,31.52
2022-12-09T04:02:27.439Z,32.38
2022-12-09T04:04:55.468Z,32.35
2022-12-09T04:07:23.456Z,31.40
2022-12-09T04:09:51.266Z,32.53
2022-12-09T04:12:18.872Z,33.00
2022-12-09T04:14:46.567Z,30.90
2022-12-09T04:17:14.211Z,31.48
2022-12-09T04:19:42.107Z,33.40
2022-12-09T04:22:09.613Z,32.90
2022-12-09T04:24:37.222Z,33.65
2022-12-09T04:27:04.943Z,31.65
2022-12-09T04:29:32.664Z,29.90
2022-12-09T04:32:00.513Z,27.27
2022-12-09T04:34:28.416Z,25.85
2022-12-09T04:36:56.219Z,25.48
2022-12-09T04:39:24.037Z,24.27
2022-12-09T04:41:51.539Z,24.15
2022-12-09T04:44:19.345Z,23.92
2022-12-09T04:46:46.954Z,24.10
2022-12-09T04:49:14.756Z,23.88
2022-12-09T04:51:42.300Z,22.52
2022-12-09T04:54:16.034Z,21.05
2022-12-09T04:56:43.914Z,21.73
2022-12-09T04:59:11.833Z,19.88
2022-12-09T05:01:39.980Z,19.83
2022-12-09T05:04:09.474Z,20.35
2022-12-09T05:06:37.321Z,19.67
2022-12-09T05:09:05.285Z,18.30
2022-12-09T05:11:33.095Z,17.98
2022-12-09T05:14:00.717Z,17.98
2022-12-09T05:16:28.329Z,17.95
2022-12-09T05:18:56.440Z,17.67
2022-12-09T05:21:24.790Z,17.05
2022-12-09T05:23:52.964Z,16.30
2022-12-09T05:26:22.716Z,17.13
2022-12-09T05:28:51.178Z,15.90
2022-12-09T05:31:21.067Z,16.48
2022-12-09T05:33:51.340Z,17.00
2022-12-09T05:36:21.698Z,17.42
2022-12-09T05:38:49.682Z,16.70
2022-12-09T05:41:19.035Z,15.73
2022-12-09T05:43:47.735Z,16.92
2022-12-09T05:46:16.656Z,16.98
2022-12-09T05:48:44.637Z,17.25
2022-12-09T05:51:17.229Z,17.08
2022-12-09T05:53:45.041Z,17.10
2022-12-09T05:56:16.449Z,16.40
2022-12-09T05:58:45.024Z,16.73
2022-12-09T06:01:13.644Z,16.05
2022-12-09T06:03:41.923Z,15.85
2022-12-09T06:06:14.840Z,16.58
2022-12-09T06:08:44.094Z,15.45
2022-12-09T06:11:18.075Z,15.25
2022-12-09T06:13:47.202Z,14.48
2022-12-09T06:16:17.550Z,15.38
2022-12-09T06:18:46.064Z,15.15
2022-12-09T06:21:15.224Z,15.80
2022-12-09T06:23:43.543Z,15.38
2022-12-09T06:26:19.085Z,15.82
2022-12-09T06:28:47.444Z,16.67
2022-12-09T06:31:15.482Z,16.92
2022-12-09T06:33:54.809Z,17.20
2022-12-09T06:36:24.270Z,17.90
2022-12-09T06:38:52.146Z,18.73
2022-12-09T06:41:19.951Z,20.58
2022-12-09T06:43:47.671Z,24.23
2022-12-09T06:46:17.917Z,18.88
2022-12-09T06:48:46.318Z,18.98
2022-12-09T06:51:14.385Z,19.52
2022-12-09T06:53:42.364Z,20.33
2022-12-09T06:56:13.237Z,20.02
2022-12-09T06:58:43.078Z,19.27
2022-12-09T07:01:14.792Z,19.48
2022-12-09T07:03:44.793Z,18.95
2022-12-09T07:06:25.971Z,18.92
2022-12-09T07:08:54.874Z,19.60
2022-12-09T07:11:23.458Z,19.38
2022-12-09T07:13:52.177Z,20.25
2022-12-09T07:16:20.196Z,20.88
2022-12-09T07:18:48.051Z,20.00
2022-12-09T07:21:19.027Z,20.92
2022-12-09T07:23:46.661Z,18.95
2022-12-09T07:26:15.650Z,19.92
2022-12-09T07:28:44.207Z,20.45
2022-12-09T07:31:26.590Z,20.30
2022-12-09T07:33:55.812Z,20.42
2022-12-09T07:36:25.856Z,18.80
2022-12-09T07:38:58.609Z,20.20
2022-12-09T07:41:26.767Z,20.90
2022-12-09T07:43:54.517Z,20.58
2022-12-09T07:46:24.237Z,20.60
2022-12-09T07:48:52.124Z,20.85
2022-12-09T07:51:19.949Z,22.00
2022-12-09T07:53:47.903Z,22.08
2022-12-09T07:56:17.689Z,22.83
2022-12-09T07:58:47.796Z,21.10
2022-12-09T08:01:18.226Z,20.40
2022-12-09T08:03:47.423Z,19.92
2022-12-09T08:06:18.193Z,21.95
2022-12-09T08:08:46.586Z,22.40
2022-12-09T08:11:23.523Z,26.67
2022-12-09T08:13:51.756Z,32.42
2022-12-09T08:16:21.944Z,22.25
2022-12-09T08:18:51.562Z,23.15
2022-12-09T08:21:25.598Z,22.73
2022-12-09T08:23:55.577Z,21.65
2022-12-09T08:26:25.515Z,21.23
2022-12-09T08:28:54.022Z,20.88
2022-12-09T08:31:24.477Z,24.02
2022-12-09T08:33:53.810Z,22.33
2022-12-09T08:36:24.827Z,24.30
2022-12-09T08:38:53.053Z,26.15
2022-12-09T08:41:36.357Z,26.65
2022-12-09T08:44:14.446Z,27.02
2022-12-09T08:46:45.003Z,29.15
2022-12-09T08:49:18.776Z,26.90
2022-12-09T08:51:48.624Z,25.70
2022-12-09T08:54:17.294Z,23.23
2022-12-09T08:56:51.484Z,21.60
2022-12-09T08:59:19.582Z,22.40
2022-12-09T09:01:48.355Z,20.52
2022-12-09T09:04:19.351Z,21.33
2022-12-09T09:06:50.282Z,14.35
2022-12-09T09:09:20.173Z,19.50
2022-12-09T09:11:48.124Z,21.20
2022-12-09T09:14:16.647Z,17.42
2022-12-09T09:16:45.375Z,16.63
2022-12-09T09:19:17.587Z,16.77
2022-12-09T09:24:16.238Z,17.60
2022-12-09T09:26:44.388Z,16.05
2022-12-09T09:29:14.363Z,15.52
2022-12-09T09:31:42.291Z,16.42
2022-12-09T09:34:11.306Z,15.85
2022-12-09T09:36:41.356Z,16.60
2022-12-09T09:39:09.232Z,16.55
2022-12-09T09:41:54.679Z,16.30
2022-12-09T09:44:39.451Z,15.75
2022-12-09T09:47:36.345Z,14.68
2022-12-09T09:50:30.960Z,13.73
2022-12-09T09:53:01.169Z,13.73
2022-12-09T09:55:47.449Z,12.93
2022-12-09T09:58:42.014Z,12.43
2022-12-09T10:01:17.790Z,9.82
2022-12-09T10:04:21.760Z,7.75
2022-12-09T10:07:08.037Z,8.60
2022-12-09T10:09:44.334Z,7.15
2022-12-09T10:12:28.213Z,7.20
2022-12-09T10:15:14.206Z,6.97
2022-12-09T10:17:50.943Z,6.93
2022-12-09T10:20:25.610Z,5.72
2022-12-09T10:23:13.199Z,5.57
2022-12-09T10:25:50.949Z,5.30
2022-12-09T10:28:30.798Z,5.20
2022-12-09T10:30:58.958Z,5.63
2022-12-09T10:33:32.363Z,6.10
2022-12-09T10:36:00.254Z,5.53
2022-12-09T10:38:30.326Z,5.72
2022-12-09T10:41:07.346Z,5.72
2022-12-09T10:43:38.853Z,5.47
2022-12-09T10:46:20.515Z,6.70
2022-12-09T10:48:49.373Z,5.82
2022-12-09T10:51:26.909Z,5.63
2022-12-09T10:53:57.965Z,6.20
2022-12-09T10:56:28.453Z,6.07
2022-12-09T10:59:25.065Z,6.22
2022-12-09T11:02:01.970Z,6.13
2022-12-09T11:04:42.927Z,5.15
2022-12-09T11:07:11.105Z,5.15
2022-12-09T11:09:48.097Z,4.13
2022-12-09T11:12:34.823Z,4.68
2022-12-09T11:15:39.758Z,5.00
2022-12-09T11:18:39.522Z,4.78
2022-12-09T11:21:28.129Z,3.60
2022-12-09T11:24:02.580Z,3.53
2022-12-09T11:26:37.609Z,4.80
2022-12-09T11:29:15.690Z,4.63
2022-12-09T11:31:43.891Z,5.18
2022-12-09T11:34:25.114Z,5.03
2022-12-09T11:36:54.820Z,5.03
2022-12-09T11:39:34.743Z,5.53
2022-12-09T11:42:18.543Z,4.55
2022-12-09T11:44:56.693Z,4.70
2022-12-09T11:47:57.335Z,5.95
2022-12-09T11:50:26.396Z,5.15
2022-12-09T11:53:26.291Z,5.10
2022-12-09T11:56:23.001Z,4.97
2022-12-09T11:59:05.870Z,5.10
2022-12-09T12:01:52.116Z,4.85
2022-12-09T12:04:34.985Z,4.28
2022-12-09T12:07:13.198Z,5.30
2022-12-09T12:09:53.104Z,4.90
2022-12-09T12:12:44.077Z,4.93
2022-12-09T12:15:35.598Z,5.25
2022-12-09T12:18:05.180Z,6.13
2022-12-09T12:20:42.095Z,6.32
2022-12-09T12:23:18.335Z,4.93
2022-12-09T12:26:03.200Z,5.00
2022-12-09T12:28:33.570Z,5.38
2022-12-09T12:31:26.427Z,5.95
2022-12-09T12:34:28.275Z,5.75
2022-12-09T12:37:24.991Z,6.27
2022-12-09T12:40:10.828Z,9.02
2022-12-09T12:43:19.098Z,9.48
2022-12-09T12:46:17.218Z,10.05
2022-12-09T12:49:03.427Z,11.77
2022-12-09T12:51:52.648Z,11.65
2022-12-09T12:54:39.148Z,11.95
2022-12-09T12:57:38.742Z,12.50
2022-12-09T13:00:24.519Z,13.10
2022-12-09T13:03:19.684Z,11.63
2022-12-09T13:05:50.874Z,13.18
2022-12-09T13:08:38.597Z,12.00
2022-12-09T13:11:27.170Z,11.73
2022-12-09T13:14:00.199Z,9.88
2022-12-09T13:16:39.371Z,6.82
2022-12-09T13:19:15.981Z,6.30
2022-12-09T13:21:47.529Z,7.18
2022-12-09T13:24:47.249Z,4.63
2022-12-09T13:27:18.296Z,6.90
2022-12-09T13:30:00.666Z,7.40
2022-12-09T13:32:49.665Z,7.03
2022-12-09T13:35:29.605Z,8.38
2022-12-09T13:37:58.725Z,8.85
2022-12-09T13:40:31.394Z,8.70
2022-12-09T13:43:01.705Z,9.00
2022-12-09T13:45:36.740Z,9.63
2022-12-09T13:48:29.684Z,9.45
2022-12-09T13:50:59.812Z,7.93
2022-12-09T13:53:58.058Z,8.00
2022-12-09T13:56:31.489Z,7.10
2022-12-09T13:59:28.329Z,6.82
2022-12-09T14:02:10.734Z,7.93
2022-12-09T14:04:49.115Z,7.40
2022-12-09T14:07:46.356Z,6.28
2022-12-09T14:10:32.481Z,5.88
2022-12-09T14:12:59.874Z,5.82
2022-12-09T14:15:28.524Z,5.85
2022-12-09T14:18:02.436Z,6.25
2022-12-09T14:20:36.310Z,6.10
2022-12-09T14:23:06.563Z,6.22
2022-12-09T14:25:33.922Z,6.03
2022-12-09T14:28:10.567Z,5.93
2022-12-09T14:30:47.178Z,5.80
2022-12-09T14:33:34.185Z,6.20
2022-12-09T14:36:13.504Z,5.78
2022-12-09T14:39:24.213Z,5.63
2022-12-09T14:42:04.175Z,5.43
2022-12-09T14:44:43.850Z,6.25
2022-12-09T14:47:14.342Z,6.03
2022-12-09T14:49:48.853Z,6.10
2022-12-09T14:52:34.442Z,6.03
2022-12-09T14:55:06.303Z,5.63
2022-12-09T14:57:37.468Z,5.80
2022-12-09T15:00:07.468Z,6.45
2022-12-09T15:02:35.416Z,7.55
2022-12-09T15:05:03.479Z,7.35
2022-12-09T15:07:33.282Z,6.15
2022-12-09T15:10:06.098Z,6.97
2022-12-09T15:12:42.754Z,6.70
2022-12-09T15:15:10.293Z,6.93
2022-12-09T15:17:58.328Z,7.13
2022-12-09T15:20:32.128Z,6.70
2022-12-09T15:23:05.815Z,6.90
2022-12-09T15:25:37.425Z,7.95
2022-12-09T15:28:13.541Z,8.32
2022-12-09T15:30:41.223Z,8.60
2022-12-09T15:33:17.933Z,8.90
2022-12-09T15:36:07.181Z,10.07
2022-12-09T15:38:41.015Z,10.48
2022-12-09T15:41:28.092Z,11.85
2022-12-09T15:44:00.045Z,10.95
2022-12-09T15:46:30.267Z,12.13
2022-12-09T15:48:59.967Z,10.50
2022-12-09T15:51:28.914Z,8.85
2022-12-09T15:54:06.906Z,9.23
2022-12-09T15:56:43.332Z,8.85
2022-12-09T15:59:25.094Z,8.77
2022-12-09T16:01:54.705Z,7.95
2022-12-09T16:04:25.181Z,7.55
2022-12-09T16:06:52.731Z,8.00
2022-12-09T16:09:21.409Z,5.13
2022-12-09T16:11:54.903Z,4.50
2022-12-09T16:14:23.689Z,3.83
2022-12-09T16:16:54.429Z,4.38
2022-12-09T16:19:24.973Z,4.35
2022-12-09T16:22:07.549Z,4.15
2022-12-09T16:25:13.083Z,4.40
2022-12-09T16:27:33.633Z,3.65
2022-12-09T16:30:13.194Z,4.07
2022-12-09T16:32:50.089Z,3.85
2022-12-09T16:35:17.542Z,7.22
2022-12-09T16:38:11.129Z,6.45
2022-12-09T16:40:44.823Z,7.15
2022-12-09T16:43:18.950Z,6.35
2022-12-09T16:45:55.350Z,5.00
2022-12-09T16:48:25.508Z,4.95
2022-12-09T16:51:10.492Z,5.47
2022-12-09T16:53:49.952Z,5.55
2022-12-09T16:56:20.601Z,5.45
2022-12-09T16:58:48.142Z,6.43
2022-12-09T17:01:17.744Z,6.97
2022-12-09T17:04:00.462Z,6.75
2022-12-09T17:06:28.762Z,6.22
2022-12-09T17:08:56.295Z,4.57
2022-12-09T17:11:23.776Z,4.78
2022-12-09T17:13:51.294Z,4.32
2022-12-09T17:16:22.267Z,4.50
2022-12-09T17:18:50.716Z,4.33
2022-12-09T17:21:19.058Z,4.50
2022-12-09T17:23:47.387Z,4.90
2022-12-09T17:26:17.441Z,4.47
2022-12-09T17:28:45.706Z,4.90
2022-12-09T17:31:20.228Z,4.40
2022-12-09T17:33:48.592Z,4.50
2022-12-09T17:36:17.447Z,5.28
2022-12-09T17:38:45.198Z,4.32
2022-12-09T17:41:15.989Z,3.60
2022-12-09T17:43:43.513Z,4.00
2022-12-09T17:46:11.938Z,4.82
2022-12-09T17:48:40.246Z,4.65
2022-12-09T17:51:14.361Z,4.43
2022-12-09T17:53:42.915Z,4.72
2022-12-09T17:56:21.978Z,4.22
2022-12-09T17:59:07.368Z,3.88
2022-12-09T18:01:36.384Z,3.75
2022-12-09T18:04:10.331Z,4.00
2022-12-09T18:06:43.916Z,4.13
2022-12-09T18:09:19.893Z,3.92
2022-12-09T18:11:47.702Z,4.03
2022-12-09T18:14:16.253Z,4.05
2022-12-09T18:16:46.442Z,4.10
2022-12-09T18:19:16.618Z,4.10
2022-12-09T18:21:45.346Z,4.25
2022-12-09T18:24:13.382Z,4.28
2022-12-09T18:26:42.204Z,4.05
2022-12-09T18:29:11.596Z,4.30
2022-12-09T18:31:40.633Z,4.10
2022-12-09T18:34:08.152Z,3.88
2022-12-09T18:36:35.693Z,4.10
2022-12-09T18:39:04.289Z,4.22
2022-12-09T18:41:33.320Z,4.45
2022-12-09T18:44:03.803Z,6.22
2022-12-09T18:46:40.108Z,6.07
2022-12-09T18:49:11.382Z,6.80
2022-12-09T18:51:39.955Z,5.73
2022-12-09T18:54:08.150Z,5.15
2022-12-09T18:56:36.089Z,4.70
2022-12-09T18:59:06.975Z,4.32
2022-12-09T19:01:39.877Z,4.10
2022-12-09T19:04:13.828Z,3.88
2022-12-09T19:06:43.721Z,4.40
2022-12-09T19:09:16.883Z,4.50
2022-12-09T19:11:46.244Z,4.60
2022-12-09T19:14:15.270Z,5.45
2022-12-09T19:16:43.900Z,5.13
2022-12-09T19:19:15.219Z,5.32
2022-12-09T19:21:43.522Z,5.40
2022-12-09T19:24:15.550Z,5.55
2022-12-09T19:26:43.982Z,6.75
2022-12-09T19:29:13.220Z,6.07
2022-12-09T19:31:46.274Z,8.13
2022-12-09T19:34:15.363Z,6.05
2022-12-09T19:36:43.912Z,7.40
2022-12-09T19:39:13.770Z,8.68
2022-12-09T19:41:42.316Z,6.18
2022-12-09T19:44:15.399Z,6.28
2022-12-09T19:46:46.352Z,7.03
2022-12-09T19:49:15.537Z,8.23
2022-12-09T19:51:43.567Z,8.93
2022-12-09T19:54:11.259Z,9.05
2022-12-09T19:56:38.702Z,10.35
2022-12-09T19:59:06.553Z,12.02
2022-12-09T20:01:39.254Z,12.13
2022-12-09T20:04:47.117Z,14.75
2022-12-09T20:07:07.485Z,13.02
2022-12-09T20:09:36.823Z,14.05
2022-12-09T20:12:04.735Z,15.35
2022-12-09T20:14:32.267Z,16.63
2022-12-09T20:16:59.880Z,17.63
2022-12-09T20:19:27.844Z,18.15
2022-12-09T20:21:55.380Z,18.13
2022-12-09T20:24:23.264Z,19.65
2022-12-09T20:26:50.730Z,19.35
2022-12-09T20:29:18.293Z,19.88
2022-12-09T20:31:45.777Z,21.17
2022-12-09T20:34:16.357Z,21.10
2022-12-09T20:36:45.369Z,20.15
2022-12-09T20:39:19.574Z,21.95
2022-12-09T20:41:48.039Z,21.52
2022-12-09T20:44:17.144Z,21.55
2022-12-09T20:46:47.313Z,22.17
2022-12-09T20:49:14.903Z,22.20
2022-12-09T20:51:45.416Z,22.95
2022-12-09T20:54:13.505Z,21.23
2022-12-09T20:56:42.023Z,15.88
2022-12-09T20:59:11.984Z,12.32
2022-12-09T21:01:40.217Z,11.63
2022-12-09T21:04:08.521Z,10.63
2022-12-09T21:06:38.722Z,9.90
2022-12-09T21:09:12.806Z,8.63
2022-12-09T21:11:40.566Z,8.07
2022-12-09T21:14:08.130Z,8.60
2022-12-09T21:16:39.970Z,7.00
2022-12-09T21:19:11.660Z,6.72
2022-12-09T21:21:41.171Z,6.93
2022-12-09T21:24:11.811Z,7.88
2022-12-09T21:26:40.100Z,12.82
2022-12-09T21:29:08.510Z,19.15
2022-12-09T21:31:38.501Z,22.70
2022-12-09T21:34:07.119Z,26.80
2022-12-09T21:36:37.728Z,27.35
2022-12-09T21:39:06.719Z,29.30
2022-12-09T21:41:36.530Z,30.33
2022-12-09T21:44:05.284Z,31.40
2022-12-09T21:46:35.431Z,30.50
2022-12-09T21:49:05.758Z,30.33
2022-12-09T21:51:34.577Z,29.67
2022-12-09T21:54:02.514Z,28.83
2022-12-09T21:56:33.167Z,29.13
2022-12-09T21:59:01.057Z,29.70
2022-12-09T22:01:46.753Z,29.20
2022-12-09T22:04:16.383Z,26.88
2022-12-09T22:06:48.585Z,28.13
2022-12-09T22:11:44.307Z,26.88
2022-12-09T22:14:11.708Z,28.80
2022-12-09T22:16:44.307Z,27.92
2022-12-09T22:19:16.531Z,28.52
2022-12-09T22:21:44.481Z,28.27
2022-12-09T22:24:13.085Z,28.27
2022-12-09T22:26:43.377Z,28.58
2022-12-09T22:29:12.975Z,26.60
2022-12-09T22:31:41.837Z,27.77
2022-12-09T22:34:19.256Z,28.35
2022-12-09T22:36:48.330Z,26.70
2022-12-09T22:39:18.044Z,27.67
2022-12-09T22:41:46.295Z,27.95
2022-12-09T22:44:17.073Z,25.85
2022-12-09T22:46:45.450Z,25.55
2022-12-09T22:49:15.225Z,26.25
2022-12-09T22:51:43.353Z,26.48
2022-12-09T22:54:11.253Z,27.20
2022-12-09T22:56:40.707Z,27.85
2022-12-09T22:59:08.457Z,26.50
2022-12-09T23:01:37.589Z,29.08
2022-12-09T23:04:07.109Z,27.38
2022-12-09T23:06:37.064Z,29.25
2022-12-09T23:09:08.678Z,28.35
2022-12-09T23:11:37.009Z,27.95
2022-12-09T23:14:04.433Z,29.38
2022-12-09T23:16:31.975Z,29.30
2022-12-09T23:18:59.824Z,30.67
2022-12-09T23:21:30.781Z,30.65
2022-12-09T23:24:00.577Z,29.67
2022-12-09T23:26:30.745Z,29.33
2022-12-09T23:28:59.972Z,29.63
2022-12-09T23:31:30.068Z,30.33
2022-12-09T23:33:58.121Z,28.65
2022-12-09T23:36:37.591Z,28.48
2022-12-09T23:39:11.123Z,26.63
2022-12-09T23:41:42.922Z,28.63
2022-12-09T23:44:15.817Z,28.05
2022-12-09T23:46:43.867Z,29.77
2022-12-09T23:49:11.520Z,29.13
2022-12-09T23:51:41.016Z,29.08
2022-12-09T23:54:10.121Z,30.20
2022-12-09T23:56:40.595Z,30.27
2022-12-09T23:59:12.234Z,29.92
